Time;durP1;ratioP1;P1;durP2;ratioP2;P2;SDS_P1;SDS_P2;PMS_P1;PMS_P2;Temp;Humidity;BMP_temperature;BMP_pressure;BME280_temperature;BME280_humidity;BME280_pressure;Samples;Min_cycle;Max_cycle;Signal;HPM_P1;HPM_P2
2023/09/03 00:03:42;;;;;;;;;;;;;;;19.73;63.96;100587.81;10412615;28;813;-70
2023/09/03 00:08:38;;;;;;;;;;;;;;;19.74;64.02;100589.53;10412487;28;860;-70
2023/09/03 00:13:34;;;;;;;;;;;;;;;19.73;63.95;100582.53;10412481;28;1947;-70
2023/09/03 00:18:30;;;;;;;;;;;;;;;19.73;63.91;100587.81;10412119;28;955;-71
2023/09/03 00:23:25;;;;;;;;;;;;;;;19.72;63.71;100591.34;10411944;28;762;-70
2023/09/03 00:28:21;;;;;;;;;;;;;;;19.73;63.81;100581.63;10411767;28;1340;-70
2023/09/03 00:33:17;;;;;;;;;;;;;;;19.70;63.80;100582.63;10411494;28;1910;-70
2023/09/03 00:38:13;;;;;;;;;;;;;;;19.72;63.83;100594.00;10411350;28;793;-70
2023/09/03 00:43:09;;;;;;;;;;;;;;;19.71;63.81;100600.22;10411035;28;884;-70
2023/09/03 00:48:06;;;;;;;;;;;;;;;19.71;63.94;100594.94;10410892;28;801;-70
2023/09/03 00:53:01;;;;;;;;;;;;;;;19.70;63.87;100593.19;10410216;28;1948;-70
2023/09/03 00:57:57;;;;;;;;;;;;;;;19.69;63.83;100587.03;10411768;28;961;-70
2023/09/03 01:02:54;;;;;;;;;;;;;;;19.71;63.63;100613.47;10410222;28;844;-70
2023/09/03 01:07:50;;;;;;;;;;;;;;;19.69;63.70;100621.44;10411293;28;841;-70
2023/09/03 01:12:46;;;;;;;;;;;;;;;19.69;63.57;100617.94;10410001;28;1898;-70
2023/09/03 01:17:45;;;;;;;;;;;;;;;19.68;63.74;100632.94;10409548;28;808;-70
2023/09/03 01:22:41;;;;;;;;;;;;;;;19.68;63.79;100625.00;10409513;28;893;-70
2023/09/03 01:27:37;;;;;;;;;;;;;;;19.67;63.57;100625.91;10408573;28;1205;-70
2023/09/03 01:32:33;;;;;;;;;;;;;;;19.67;63.73;100604.75;10409625;28;1917;-70
2023/09/03 01:37:29;;;;;;;;;;;;;;;19.67;63.75;100611.84;10409323;28;849;-70
2023/09/03 01:42:25;;;;;;;;;;;;;;;19.66;63.65;100616.25;10408854;28;956;-70
2023/09/03 01:47:21;;;;;;;;;;;;;;;19.66;63.56;100624.19;10407997;28;1299;-70
2023/09/03 01:52:16;;;;;;;;;;;;;;;19.67;63.72;100633.00;10408337;28;1960;-70
2023/09/03 01:57:12;;;;;;;;;;;;;;;19.65;63.60;100640.97;10408924;28;917;-70
2023/09/03 02:02:08;;;;;;;;;;;;;;;19.65;63.64;100626.88;10408435;28;960;-70
2023/09/03 02:07:04;;;;;;;;;;;;;;;19.64;63.55;100626.00;10408582;28;781;-70
2023/09/03 02:11:59;;;;;;;;;;;20.40;72.90;;;19.63;63.69;100632.22;10408004;28;1953;-70
2023/09/03 02:16:55;;;;;;;;;;;20.40;73.70;;;19.64;63.59;100630.44;10407345;28;860;-70
2023/09/03 02:21:50;;;;;;;;;;;20.30;73.50;;;19.63;63.62;100634.88;10409011;28;900;-70
2023/09/03 02:26:46;;;;;;;;;;;20.30;73.60;;;19.62;63.67;100627.84;10414047;28;897;-70
2023/09/03 02:31:41;;;;;;;;;;;20.30;73.70;;;19.63;63.53;100639.28;10416728;28;1913;-71
2023/09/03 02:36:37;;;;;;;;;;;20.30;73.90;;;19.63;63.62;100631.38;10415928;28;916;-70
2023/09/03 02:41:33;;;;;;;;;;;20.30;73.70;;;19.61;63.53;100630.56;10416569;28;790;-70
2023/09/03 02:46:28;;;;;;;;;;;20.30;73.50;;;19.62;63.62;100634.91;10416345;28;836;-70
2023/09/03 02:51:24;;;;;;;;;;;20.30;73.60;;;19.62;63.60;100651.66;10416185;28;790;-71
2023/09/03 02:56:19;;;;;;;;;;;20.30;73.60;;;19.61;63.62;100646.41;10415319;28;1956;-70
2023/09/03 03:01:15;;;;;;;;;;;20.30;73.60;;;19.61;63.60;100639.34;10416606;28;861;-70
2023/09/03 03:06:10;;;;;;;;;;;20.30;73.60;;;19.60;63.42;100631.47;10414234;28;942;-71
2023/09/03 03:11:05;;;;;;;;;;;20.30;73.50;;;19.60;63.56;100623.53;10414842;28;838;-70
2023/09/03 03:16:01;;;;;;;;;;;20.30;73.50;;;19.58;63.52;100620.94;10414653;28;1941;-70
2023/09/03 03:20:56;;;;;;;;;;;20.30;73.50;;;19.59;63.48;100608.56;10415070;28;828;-70
2023/09/03 03:25:51;;;;;;;;;;;20.30;73.40;;;19.58;63.58;100596.28;10415466;28;812;-70
2023/09/03 03:30:47;;;;;;;;;;;20.30;73.50;;;19.57;63.56;100586.59;10414127;28;1198;-70
2023/09/03 03:35:42;;;;;;;;;;;20.30;73.50;;;19.57;63.37;100590.16;10412728;28;1909;-71
2023/09/03 03:40:38;;;;;;;;;;;20.30;73.50;;;19.57;63.54;100592.78;10413438;28;1127;-65
2023/09/03 03:45:33;;;;;;;;;;;20.30;73.50;;;19.58;63.35;100605.06;10414068;28;809;-70
2023/09/03 03:50:28;;;;;;;;;;;20.30;73.50;;;19.57;63.61;100613.06;10413925;28;821;-70
2023/09/03 03:55:24;;;;;;;;;;;20.30;73.50;;;19.56;63.45;100617.50;10413106;28;1902;-70
2023/09/03 04:00:19;;;;;;;;;;;20.20;73.30;;;19.56;63.46;100619.28;10412319;28;900;-70
2023/09/03 04:05:14;;;;;;;;;;;20.20;73.40;;;19.55;63.46;100630.78;10412151;28;849;-67
2023/09/03 04:10:10;;;;;;;;;;;20.20;73.40;;;19.55;63.63;100636.06;10412448;28;853;-70
2023/09/03 04:15:06;;;;;;;;;;;20.30;74.00;;;19.54;63.84;100645.75;10412114;28;1901;-70
2023/09/03 04:20:02;;;;;;;;;;;20.20;74.00;;;19.55;63.69;100658.09;10412082;28;973;-70
2023/09/03 04:24:58;;;;;;;;;;;20.20;74.00;;;19.55;63.81;100686.31;10412472;28;910;-70
2023/09/03 04:29:53;;;;;;;;;;;20.20;74.10;;;19.54;63.89;100692.50;10412185;28;1127;-70
2023/09/03 04:34:48;;;;;;;;;;;20.20;74.10;;;19.54;63.79;100700.44;10412187;28;1909;-68
2023/09/03 04:39:44;;;;;;;;;;;20.20;74.10;;;19.52;63.68;100699.63;10411362;28;867;-70
2023/09/03 04:44:42;;;;;;;;;;;20.20;74.00;;;19.52;63.86;100696.97;10411052;28;808;-70
2023/09/03 04:49:37;;;;;;;;;;;20.20;74.00;;;19.52;63.89;100689.03;10410372;28;813;-70
2023/09/03 04:54:33;;;;;;;;;;;20.20;74.00;;;19.51;63.89;100693.47;10410583;28;1894;-70
2023/09/03 04:59:28;;;;;;;;;;;20.20;74.00;;;19.49;63.73;100692.66;10411097;28;870;-70
2023/09/03 05:04:23;;;;;;;;;;;20.20;74.20;;;19.50;63.82;100689.13;10410351;28;786;-69
2023/09/03 05:09:19;;;;;;;;;;;20.20;74.20;;;19.51;63.92;100690.84;10409249;28;1043;-69
2023/09/03 05:14:14;;;;;;;;;;;20.20;74.20;;;19.51;63.97;100689.97;10409823;28;1906;-69
2023/09/03 05:19:14;;;;;;;;;;;20.20;74.20;;;19.51;63.77;100704.06;10409788;28;845;-70
2023/09/03 05:24:10;;;;;;;;;;;20.20;74.20;;;19.51;64.00;100724.34;10410398;28;845;-70
2023/09/03 05:29:05;;;;;;;;;;;20.20;74.20;;;19.49;63.74;100735.84;10409581;28;1458;-70
2023/09/03 05:34:01;;;;;;;;;;;20.20;74.20;;;19.49;63.92;100738.50;10409863;28;1973;-70
2023/09/03 05:38:57;;;;;;;;;;;20.20;74.30;;;19.48;63.83;100733.25;10408823;28;1029;-70
2023/09/03 05:43:53;;;;;;;;;;;20.20;74.30;;;19.47;63.94;100729.75;10409224;28;825;-70
2023/09/03 05:48:49;;;;;;;;;;;20.20;74.30;;;19.47;63.95;100736.81;10408684;28;874;-70
2023/09/03 05:53:44;;;;;;;;;;;20.20;74.30;;;19.48;63.82;100747.34;10408487;28;1918;-70
2023/09/03 05:58:39;;;;;;;;;;;20.20;74.30;;;19.47;63.89;100753.53;10408840;28;792;-70
2023/09/03 06:03:35;;;;;;;;;;;20.20;74.30;;;19.47;63.83;100771.19;10408934;28;864;-70
2023/09/03 06:08:30;;;;;;;;;;;20.20;74.30;;;19.47;63.78;100776.50;10408177;28;821;-70
2023/09/03 06:13:26;;;;;;;;;;;20.20;74.30;;;19.46;63.94;100786.19;10408014;28;1971;-70
2023/09/03 06:18:21;;;;;;;;;;;20.10;74.20;;;19.46;63.82;100795.91;10407363;28;881;-70
2023/09/03 06:23:18;;;;;;;;;;;20.20;74.20;;;19.45;63.83;100800.31;10408446;28;868;-70
2023/09/03 06:28:14;;;;;;;;;;;20.20;74.30;;;19.45;63.95;100802.09;10407527;28;1292;-70
2023/09/03 06:33:09;;;;;;;;;;;20.20;74.30;;;19.46;63.84;100817.03;10407541;28;1965;-70
2023/09/03 06:38:04;;;;;;;;;;;20.20;74.10;;;19.46;63.88;100823.19;10407775;28;938;-70
2023/09/03 06:43:00;;;;;;;;;;;20.10;74.10;;;19.45;63.81;100825.91;10407409;28;834;-69
2023/09/03 06:47:57;;;;;;;;;;;20.20;74.20;;;19.45;63.68;100832.06;10407228;28;801;-70
2023/09/03 06:52:53;;;;;;;;;;;20.20;74.00;;;19.45;63.64;100833.84;10407137;28;1967;-69
2023/09/03 06:57:48;;;;;;;;;;;20.10;73.90;;;19.44;63.77;100855.88;10407158;28;837;-69
2023/09/03 07:02:44;;;;;;;;;;;20.10;73.90;;;19.44;63.79;100863.81;10407029;28;829;-69
2023/09/03 07:07:39;;;;;;;;;;;20.10;73.90;;;19.45;63.80;100868.22;10407015;28;945;-69
2023/09/03 07:12:34;;;;;;;;;;;20.10;74.00;;;19.45;63.87;100876.16;10412057;28;1886;-68
2023/09/03 07:17:30;;;;;;;;;;;20.10;74.00;;;19.45;63.69;100882.28;10414632;28;814;-68
2023/09/03 07:22:25;;;;;;;;;;;20.10;74.10;;;19.46;63.81;100880.50;10414533;28;888;-70
2023/09/03 07:27:21;;;;;;;;;;;20.10;74.20;;;19.46;63.90;100891.09;10413753;28;1026;-70
2023/09/03 07:32:17;;;;;;;;;;;20.10;74.30;;;19.45;63.89;100890.22;10414764;28;1918;-70
2023/09/03 07:37:12;;;;;;;;;;;20.10;74.30;;;19.44;63.85;100903.47;10414455;28;857;-68
2023/09/03 07:42:08;;;;;;;;;;;20.10;74.30;;;19.43;63.72;100913.19;10413511;28;1002;-70
2023/09/03 07:47:03;;;;;;;;;;;20.10;74.30;;;19.44;64.00;100904.38;10413467;28;872;-69
2023/09/03 07:51:58;;;;;;;;;;;20.10;74.50;;;19.46;63.87;100914.88;10412627;28;1971;-69
2023/09/03 07:56:54;;;;;;;;;;;20.10;74.60;;;19.46;64.09;100902.53;10411169;28;1109;-72
2023/09/03 08:01:49;;;;;;;;;;;20.20;74.80;;;19.47;64.07;100906.91;10412092;28;811;-70
2023/09/03 08:06:45;;;;;;;;;;;20.20;74.80;;;19.47;64.17;100906.91;10411219;28;1133;-71
2023/09/03 08:11:40;;;;;;;;;;;20.10;74.80;;;19.47;64.33;100909.56;10412633;28;875;-71
2023/09/03 08:16:36;;;;;;;;;;;20.20;75.30;;;19.46;64.23;100910.44;10414138;27;1898;-71
2023/09/03 08:21:31;;;;;;;;;;;20.20;75.10;;;19.48;64.14;100910.41;10410584;28;939;-70
2023/09/03 08:26:26;;;;;;;;;;;20.10;75.00;;;19.51;64.24;100904.16;10411902;28;838;-70
2023/09/03 08:31:22;;;;;;;;;;;20.10;75.20;;;19.53;64.31;100897.91;10411410;28;1159;-71
2023/09/03 08:36:17;;;;;;;;;;;20.20;75.40;;;19.55;64.15;100895.22;10411507;28;1917;-72
2023/09/03 08:41:13;;;;;;;;;;;20.20;75.30;;;19.54;64.18;100896.13;10411365;28;838;-73
2023/09/03 08:46:08;;;;;;;;;;;20.20;75.30;;;19.53;64.17;100889.97;10411097;28;774;-72
2023/09/03 08:51:03;;;;;;;;;;;20.20;75.20;;;19.55;64.18;100895.22;10411615;28;880;-72
2023/09/03 08:55:59;;;;;;;;;;;20.20;75.10;;;19.57;64.62;100883.69;10410928;28;1951;-71
2023/09/03 09:00:55;;;;;;;;;;;20.20;76.80;;;19.58;64.84;100892.47;10410340;28;929;-71
2023/09/03 09:05:50;;;;;;;;;;;20.20;77.10;;;19.58;64.60;100911.00;10415935;27;1607;-72
2023/09/03 09:10:50;;;;;;;;;;;20.20;76.60;;;19.58;64.99;100903.06;10438564;27;1782;-70
2023/09/03 09:15:45;;;;;;;;;;;20.20;76.60;;;19.57;64.76;100903.97;10444897;27;1901;-70
2023/09/03 09:20:41;;;;;;;;;;;20.20;76.60;;;19.57;64.89;100914.53;10451578;27;878;-72
2023/09/03 09:25:36;;;;;;;;;;;20.20;76.80;;;19.60;65.07;100922.41;10429711;27;1536;-72
2023/09/03 09:30:32;;;;;;;;;;;20.20;76.70;;;19.59;64.88;100926.78;10383174;28;1051;-73
2023/09/03 09:35:27;;;;;;;;;;;20.20;76.60;;;19.59;64.87;100923.28;10372857;28;1909;-73
2023/09/03 09:40:22;;;;;;;;;;;20.20;76.90;;;19.62;64.67;100923.19;10367132;28;1024;-73
2023/09/03 09:45:18;;;;;;;;;;;20.20;76.60;;;19.63;64.83;100924.94;10401811;28;1617;-71
2023/09/03 09:50:13;;;;;;;;;;;20.20;76.60;;;19.64;64.69;100916.94;10367166;28;839;-72
2023/09/03 09:55:09;;;;;;;;;;;20.20;76.40;;;19.65;64.68;100917.81;10367017;28;1897;-72
2023/09/03 10:00:04;;;;;;;;;;;20.20;76.40;;;19.67;64.72;100916.00;10368266;28;1632;-73
2023/09/03 10:05:00;;;;;;;;;;;20.20;76.40;;;19.64;64.80;100911.66;10367509;28;829;-73
2023/09/03 10:09:55;;;;;;;;;;;20.20;76.50;;;19.81;64.99;100912.94;10366080;28;885;-69
2023/09/03 10:14:50;;;;;;;;;;;20.30;77.20;;;19.77;64.78;100919.22;10397277;28;1905;-70
2023/09/03 10:19:47;;;;;;;;;;;20.30;76.30;;;19.73;64.75;100920.22;10406739;28;814;-68
2023/09/03 10:24:43;;;;;;;;;;;20.30;76.50;;;19.71;65.02;100928.22;10401946;28;1580;-67
2023/09/03 10:29:38;;;;;;;;;;;20.30;76.70;;;19.71;65.01;100925.59;10412432;28;1620;-70
2023/09/03 10:34:34;;;;;;;;;;;20.30;76.90;;;19.72;64.99;100924.66;10439510;28;1909;-69
2023/09/03 10:39:29;;;;;;;;;;;20.30;76.70;;;19.76;64.85;100921.00;10419600;28;1497;-73
2023/09/03 10:44:26;;;;;;;;;;;20.30;76.50;;;19.76;64.92;100917.50;10449177;27;962;-74
2023/09/03 10:49:21;;;;;;;;;;;20.30;77.30;;;19.73;64.89;100913.19;10457915;27;960;-74
2023/09/03 10:54:17;;;;;;;;;;;20.30;76.50;;;19.72;64.88;100914.06;10456438;27;2017;-72
2023/09/03 10:59:12;;;;;;;;;;;20.30;76.40;;;19.72;64.85;100919.38;10455939;27;953;-74
2023/09/03 11:04:08;;;;;;;;;;;20.30;76.50;;;19.73;64.74;100922.88;10449918;27;1533;-74
2023/09/03 11:09:10;;;;;;;;;;;20.30;76.40;;;19.76;64.85;100914.84;10455589;27;885;-71
2023/09/03 11:14:10;;;;;;;;;;;20.30;76.60;;;19.82;64.59;100912.84;10456976;27;1909;-68
2023/09/03 11:19:09;;;;;;;;;;;20.40;76.40;;;19.84;64.69;100902.25;10454750;27;1565;-70
2023/09/03 11:24:04;;;;;;;;;;;20.40;76.40;;;19.78;64.80;100905.97;10456089;27;864;-72
2023/09/03 11:28:59;;;;;;;;;;;20.40;76.60;;;19.78;64.69;100905.97;10455580;27;1213;-73
2023/09/03 11:33:58;;;;;;;;;;;20.30;76.50;;;19.77;64.86;100906.84;10456238;27;1929;-72
2023/09/03 11:38:55;;;;;;;;;;;20.30;76.50;;;19.79;64.83;100905.03;10455222;27;774;-67
2023/09/03 11:43:57;;;;;;;;;;;20.30;76.40;;;19.78;64.61;100902.41;10456044;27;984;-67
2023/09/03 11:48:56;;;;;;;;;;;20.30;76.30;;;19.76;64.56;100904.28;10456463;27;774;-67
2023/09/03 11:53:51;;;;;;;;;;;20.30;76.10;;;19.76;64.61;100917.50;10455645;27;1969;-67
2023/09/03 11:58:47;;;;;;;;;;;20.30;76.10;;;19.75;64.62;100919.25;10455198;27;951;-67
2023/09/03 12:03:42;;;;;;;;;;;20.30;76.10;;;19.75;64.55;100907.81;10455388;27;1005;-67
2023/09/03 12:08:37;;;;;;;;;;;20.30;76.00;;;19.75;64.50;100903.38;10454381;27;829;-67
2023/09/03 12:13:34;;;;;;;;;;;20.30;75.90;;;19.76;64.26;100905.13;10450814;27;1971;-67
2023/09/03 12:18:29;;;;;;;;;;;20.30;75.80;;;19.77;64.31;100906.84;10443455;27;1639;-66
2023/09/03 12:23:26;;;;;;;;;;;20.30;75.70;;;19.79;64.24;100902.38;10454193;27;921;-66
2023/09/03 12:28:22;;;;;;;;;;;20.30;75.60;;;19.79;64.22;100905.03;10454257;27;1119;-66
2023/09/03 12:33:17;;;;;;;;;;;20.30;75.60;;;19.79;64.23;100915.63;10450744;27;1979;-67
2023/09/03 12:38:13;;;;;;;;;;;20.30;75.60;;;19.94;64.04;100906.31;10451604;27;1528;-66
2023/09/03 12:43:08;;;;;;;;;;;20.40;75.90;;;19.96;63.92;100922.13;10445924;27;1608;-67
2023/09/03 12:48:03;;;;;;;;;;;20.40;75.50;;;19.92;63.96;100922.22;10410705;28;964;-73
2023/09/03 12:58:00;;;;;;;;;;;20.40;75.50;;;19.91;63.86;100914.31;10410755;28;916;-74
2023/09/03 13:02:55;;;;;;;;;;;20.40;75.30;;;19.92;63.80;100919.56;10411754;28;892;-73
2023/09/03 13:07:51;;;;;;;;;;;20.40;76.00;;;19.92;63.82;100921.38;10409303;28;885;-74
2023/09/03 13:12:46;;;;;;;;;;;20.40;75.10;;;19.94;63.87;100916.91;10409380;28;1906;-74
2023/09/03 13:17:41;;;;;;;;;;;20.40;75.00;;;19.93;63.85;100913.34;10409352;28;832;-74
2023/09/03 13:22:37;;;;;;;;;;;20.40;75.10;;;19.95;63.84;100904.53;10409729;28;856;-73
2023/09/03 13:27:32;;;;;;;;;;;20.40;75.00;;;19.97;63.68;100913.28;10409812;28;1359;-73
2023/09/03 13:32:28;;;;;;;;;;;20.50;75.10;;;19.98;63.60;100909.69;10408913;28;1974;-73
2023/09/03 13:37:23;;;;;;;;;;;20.50;75.00;;;19.98;63.68;100909.69;10409227;28;772;-73
2023/09/03 13:42:18;;;;;;;;;;;20.50;75.00;;;20.01;63.68;100909.59;10409634;28;868;-74
2023/09/03 13:47:14;;;;;;;;;;;20.50;75.00;;;20.05;63.41;100904.16;10408238;28;921;-73
2023/09/03 13:52:09;;;;;;;;;;;20.50;74.90;;;20.09;63.26;100903.13;10408639;28;1902;-73
2023/09/03 13:57:05;;;;;;;;;;;20.50;74.80;;;20.10;63.20;100907.50;10407943;28;908;-73
2023/09/03 14:02:00;;;;;;;;;;;20.50;74.70;;;20.11;63.18;100905.72;10408420;28;818;-74
2023/09/03 14:06:55;;;;;;;;;;;20.50;74.70;;;20.16;63.01;100900.28;10408041;28;862;-74
2023/09/03 14:11:51;;;;;;;;;;;20.60;74.60;;;20.18;63.02;100896.66;10408253;28;892;-74
2023/09/03 14:16:46;;;;;;;;;;;20.60;74.70;;;20.20;62.90;100892.19;10441601;27;1973;-73
2023/09/03 14:21:41;;;;;;;;;;;20.60;74.50;;;20.25;62.84;100886.69;10449894;27;863;-74
2023/09/03 14:26:37;;;;;;;;;;;20.60;74.40;;;20.31;62.80;100892.66;10449603;27;945;-73
2023/09/03 14:31:32;;;;;;;;;;;20.70;74.30;;;20.35;62.68;100901.34;10449458;28;1565;-73
2023/09/03 14:36:28;;;;;;;;;;;20.70;74.30;;;20.43;62.42;100898.41;10449387;28;1918;-73
2023/09/03 14:41:23;;;;;;;;;;;20.70;74.00;;;20.45;62.38;100892.16;10449131;28;817;-74
2023/09/03 14:46:18;;;;;;;;;;;20.70;74.00;;;20.48;62.42;100902.63;10449173;28;890;-73
2023/09/03 14:51:14;;;;;;;;;;;20.80;74.00;;;20.53;62.18;100889.22;10449815;28;856;-73
2023/09/03 14:56:11;;;;;;;;;;;20.80;74.00;;;20.58;62.15;100892.59;10449164;28;1893;-73
2023/09/03 15:01:07;;;;;;;;;;;20.80;73.90;;;20.63;62.05;100893.31;10448879;28;869;-74
2023/09/03 15:06:02;;;;;;;;;;;20.80;73.90;;;20.68;61.85;100887.84;10448986;28;884;-74
2023/09/03 15:10:58;;;;;;;;;;;20.90;73.90;;;20.73;61.72;100893.84;10435191;28;1556;-71
2023/09/03 15:15:54;;;;;;;;;;;20.90;73.80;;;20.84;61.56;100891.63;10448283;28;1890;-71
2023/09/03 15:20:49;;;;;;;;;;;21.00;73.90;;;20.91;61.51;100897.59;10448496;28;864;-72
2023/09/03 15:25:44;;;;;;;;;;;21.00;73.80;;;20.93;61.26;100896.59;10447876;28;935;-72
2023/09/03 15:30:40;;;;;;;;;;;21.00;73.50;;;20.93;61.25;100903.66;10449848;27;1205;-74
2023/09/03 15:35:35;;;;;;;;;;;21.10;73.50;;;20.77;61.75;100898.94;10456532;27;1905;-74
2023/09/03 15:40:31;;;;;;;;;;;21.00;73.50;;;20.67;62.26;100909.94;10456191;27;805;-72
2023/09/03 15:45:26;;;;;;;;;;;21.00;73.60;;;20.51;62.47;100904.31;10441735;27;1116;-74
2023/09/03 15:50:21;;;;;;;;;;;20.90;73.60;;;20.45;62.55;100910.69;10412539;28;798;-74
2023/09/03 15:55:17;;;;;;;;;;;20.90;73.70;;;20.39;63.05;100894.16;10412767;28;1906;-74
2023/09/03 16:00:13;;;;;;;;;;;20.90;74.00;;;20.36;63.31;100901.28;10412172;28;967;-73
2023/09/03 16:05:08;;;;;;;;;;;20.90;74.40;;;20.33;63.37;100893.47;10413260;28;841;-73
2023/09/03 16:10:04;;;;;;;;;;;20.80;74.60;;;20.32;63.34;100897.00;10412592;28;806;-67
2023/09/03 16:15:00;;;;;;;;;;;20.80;74.70;;;20.31;63.31;100905.03;10412117;28;1960;-73
2023/09/03 16:19:56;;;;;;;;;;;20.80;74.70;;;20.31;63.39;100900.59;10411984;28;1159;-73
2023/09/03 16:24:51;;;;;;;;;;;20.80;74.70;;;20.29;63.55;100898.91;10412037;28;1133;-73
2023/09/03 16:29:47;;;;;;;;;;;20.80;74.80;;;20.28;63.56;100903.34;10411693;28;1131;-73
2023/09/03 16:34:43;;;;;;;;;;;20.80;74.90;;;20.26;63.58;100905.19;10411424;28;2119;-74
2023/09/03 16:39:38;;;;;;;;;;;20.80;75.00;;;20.25;63.57;100902.59;10411790;28;853;-74
2023/09/03 16:44:34;;;;;;;;;;;20.80;75.00;;;20.25;63.49;100892.00;10410296;28;862;-73
2023/09/03 16:49:29;;;;;;;;;;;20.80;75.00;;;20.22;63.52;100890.31;10411024;28;816;-73
2023/09/03 16:54:25;;;;;;;;;;;20.80;75.10;;;20.23;63.50;100917.69;10410304;28;1910;-73
2023/09/03 16:59:22;;;;;;;;;;;20.80;75.00;;;20.21;63.62;100904.47;10410335;28;789;-74
2023/09/03 17:04:18;;;;;;;;;;;20.70;74.90;;;20.20;63.68;100915.13;10410815;28;794;-74
2023/09/03 17:09:13;;;;;;;;;;;20.70;74.80;;;20.30;63.48;100911.22;10409166;28;916;-74
2023/09/03 17:14:09;;;;;;;;;;;20.80;75.10;;;20.32;63.53;100909.41;10409866;28;1951;-71
2023/09/03 17:19:04;;;;;;;;;;;20.90;74.90;;;20.31;63.49;100915.63;10410608;28;810;-72
2023/09/03 17:23:59;;;;;;;;;;;20.90;75.00;;;20.29;63.81;100915.66;10409863;28;825;-71
2023/09/03 17:28:57;;;;;;;;;;;20.80;75.10;;;20.32;63.89;100910.25;10410025;28;1218;-72
2023/09/03 17:33:53;;;;;;;;;;;20.90;75.20;;;20.31;63.71;100905.91;10409969;28;1914;-71
2023/09/03 17:38:48;;;;;;;;;;;20.90;75.10;;;20.34;63.59;100904.91;10406547;27;1083;-71
2023/09/03 17:43:43;;;;;;;;;;;20.90;75.10;;;20.36;63.73;100901.28;10408520;28;971;-72
2023/09/03 17:48:39;;;;;;;;;;;20.90;75.10;;;20.31;63.71;100903.25;10408380;28;879;-72
2023/09/03 17:53:34;;;;;;;;;;;20.90;75.30;;;20.31;63.98;100897.09;10408611;28;1898;-72
2023/09/03 17:58:29;;;;;;;;;;;20.90;75.10;;;20.31;63.91;100897.94;10407976;28;776;-73
2023/09/03 18:03:25;;;;;;;;;;;21.00;75.20;;;20.25;63.75;100890.22;10408704;28;817;-72
2023/09/03 18:08:20;;;;;;;;;;;20.90;75.00;;;20.21;63.99;100888.59;10407801;28;794;-72
2023/09/03 18:13:16;;;;;;;;;;;20.80;74.90;;;20.18;64.00;100890.50;10408692;28;1953;-72
2023/09/03 18:18:11;;;;;;;;;;;20.80;74.90;;;20.16;63.89;100901.13;10407588;28;854;-72
2023/09/03 18:23:06;;;;;;;;;;;20.80;74.80;;;20.13;63.77;100904.75;10408317;28;868;-72
2023/09/03 18:28:02;;;;;;;;;;;20.80;74.70;;;20.13;63.81;100898.59;10407428;28;1412;-72
2023/09/03 18:32:57;;;;;;;;;;;20.80;74.50;;;20.11;63.75;100903.94;10407462;28;2016;-72
2023/09/03 18:37:53;;;;;;;;;;;20.70;74.20;;;20.11;63.77;100913.66;10408045;28;794;-73
2023/09/03 18:42:50;;;;;;;;;;;20.70;74.20;;;20.10;63.67;100919.88;10407114;28;856;-72
2023/09/03 18:47:45;;;;;;;;;;;20.70;74.20;;;20.09;63.62;100926.06;10407189;28;958;-72
2023/09/03 18:52:41;;;;;;;;;;;20.70;74.40;;;20.09;63.62;100923.44;10407441;28;1960;-73
2023/09/03 18:57:36;;;;;;;;;;;20.70;74.40;;;20.08;63.63;100922.56;10406474;28;817;-73
2023/09/03 19:02:32;;;;;;;;;;;20.70;74.40;;;20.13;63.52;100914.47;10406469;28;830;-76
2023/09/03 19:07:27;;;;;;;;;;;20.70;75.30;;;20.14;63.56;100917.06;10410394;28;900;-73
2023/09/03 19:12:22;;;;;;;;;;;20.80;74.50;;;20.19;63.43;100919.56;10415002;28;1969;-73
2023/09/03 19:17:18;;;;;;;;;;;20.80;74.60;;;20.16;63.50;100924.97;10414582;28;821;-74
2023/09/03 19:22:13;;;;;;;;;;;20.80;74.40;;;20.14;63.59;100937.38;10414719;28;956;-74
2023/09/03 19:27:09;;;;;;;;;;;20.80;74.40;;;20.11;63.70;100938.34;10415682;28;821;-74
2023/09/03 19:32:04;;;;;;;;;;;20.80;74.40;;;20.12;63.59;100944.50;10415378;28;1276;-74
2023/09/03 19:36:59;;;;;;;;;;;20.80;74.50;;;20.10;63.67;100941.06;10414098;28;1918;-74
2023/09/03 19:41:55;;;;;;;;;;;20.70;74.30;;;20.10;63.60;100944.56;10413905;28;810;-74
2023/09/03 19:46:50;;;;;;;;;;;20.70;74.30;;;20.10;63.62;100933.13;10413556;28;801;-74
2023/09/03 19:51:47;;;;;;;;;;;20.70;74.20;;;20.10;63.63;100930.47;10412208;28;786;-74
2023/09/03 19:56:42;;;;;;;;;;;20.70;74.30;;;20.10;63.78;100927.81;10413235;28;1966;-74
2023/09/03 20:01:37;;;;;;;;;;;20.70;74.20;;;20.09;63.59;100934.00;10412502;28;814;-75
2023/09/03 20:06:33;;;;;;;;;;;20.70;74.10;;;20.09;63.63;100919.00;10412657;28;818;-74
2023/09/03 20:11:28;;;;;;;;;;;20.70;74.00;;;20.09;63.44;100911.06;10413451;28;869;-75
2023/09/03 20:16:27;;;;;;;;;;;20.70;74.00;;;20.08;63.65;100917.28;10411381;28;1914;-75
2023/09/03 20:21:23;;;;;;;;;;;20.70;74.00;;;20.08;63.49;100908.47;10412601;28;1617;-75
2023/09/03 20:26:19;;;;;;;;;;;20.70;74.00;;;20.08;63.51;100905.81;10413057;28;880;-74
2023/09/03 20:31:14;;;;;;;;;;;20.70;73.90;;;20.09;63.43;100904.91;10411409;28;1413;-74
2023/09/03 20:36:09;;;;;;;;;;;20.70;73.80;;;20.08;63.58;100904.03;10411514;28;1981;-75
2023/09/03 20:41:05;;;;;;;;;;;20.70;73.80;;;20.08;63.41;100900.53;10411672;28;852;-75
2023/09/03 20:46:00;;;;;;;;;;;20.70;73.80;;;20.07;63.39;100899.69;10412005;28;931;-75
2023/09/03 20:50:55;;;;;;;;;;;20.70;73.80;;;20.08;63.30;100900.53;10411152;28;900;-75
2023/09/03 20:55:51;;;;;;;;;;;20.70;73.70;;;20.06;63.50;100900.56;10411534;28;1973;-74
2023/09/03 21:00:47;;;;;;;;;;;20.70;73.70;;;20.07;63.39;100897.03;10411653;28;948;-74
2023/09/03 21:05:42;;;;;;;;;;;20.70;73.70;;;20.07;63.39;100893.53;10411893;28;939;-74
2023/09/03 21:10:38;;;;;;;;;;;20.70;73.70;;;20.06;63.27;100894.44;10411404;28;868;-75
2023/09/03 21:15:33;;;;;;;;;;;20.70;73.70;;;20.06;63.33;100873.25;10410653;28;1971;-74
2023/09/03 21:20:28;;;;;;;;;;;20.70;73.70;;;20.06;63.44;100875.91;10410035;28;841;-75
2023/09/03 21:25:24;;;;;;;;;;;20.70;73.60;;;20.06;63.24;100881.19;10409883;28;797;-75
2023/09/03 21:30:20;;;;;;;;;;;20.70;73.70;;;20.06;63.45;100886.47;10408776;28;1261;-74
2023/09/03 21:35:15;;;;;;;;;;;20.70;73.60;;;20.06;63.30;100891.78;10409401;28;1979;-74
2023/09/03 21:40:11;;;;;;;;;;;20.70;73.60;;;20.04;63.41;100883.91;10409459;28;867;-74
2023/09/03 21:45:06;;;;;;;;;;;20.70;73.60;;;20.05;63.31;100887.41;10409383;28;790;-75
2023/09/03 21:50:01;;;;;;;;;;;20.70;73.60;;;20.04;63.20;100883.91;10409519;28;881;-75
2023/09/03 21:54:57;;;;;;;;;;;20.70;73.60;;;20.04;63.48;100886.56;10408663;28;1910;-75
2023/09/03 21:59:52;;;;;;;;;;;20.70;73.60;;;20.03;63.38;100879.50;10408557;28;825;-74
2023/09/03 22:04:49;;;;;;;;;;;20.70;73.60;;;20.03;63.29;100874.22;10408269;28;838;-75
2023/09/03 22:09:44;;;;;;;;;;;20.70;73.60;;;20.04;63.24;100888.31;10408283;28;1179;-74
2023/09/03 22:14:39;;;;;;;;;;;20.70;73.60;;;20.04;63.27;100880.38;10408103;28;1985;-74
2023/09/03 22:19:35;;;;;;;;;;;20.70;73.50;;;20.02;63.28;100880.44;10408857;28;865;-71
2023/09/03 22:24:30;;;;;;;;;;;20.70;73.60;;;20.02;63.19;100877.78;10408567;28;884;-75
2023/09/03 22:29:25;;;;;;;;;;;20.70;73.50;;;20.02;63.23;100883.09;10407801;28;1507;-75
2023/09/03 22:34:21;;;;;;;;;;;20.70;73.50;;;20.03;63.35;100886.59;10408328;28;1922;-75
2023/09/03 22:39:16;;;;;;;;;;;20.70;73.40;;;20.02;63.29;100892.81;10407808;28;975;-75
2023/09/03 22:44:12;;;;;;;;;;;20.70;73.40;;;20.02;63.36;100898.13;10414750;28;976;-75
2023/09/03 22:49:07;;;;;;;;;;;20.70;73.40;;;20.01;63.16;100906.94;10415494;28;931;-75
2023/09/03 22:54:02;;;;;;;;;;;20.70;73.40;;;20.01;63.23;100904.31;10416792;28;1912;-75